sensor_id;sensor_type;location;lat;lon;timestamp;pressure;altitude;pressure_sealevel;temperature;humidity
6851;BME280;3464;42.728;23.296;2024-01-10T00:01:39;96316.12;;;3.90;42.82
6851;BME280;3464;42.728;23.296;2024-01-10T00:04:08;96320.50;;;3.62;43.45
6851;BME280;3464;42.728;23.296;2024-01-10T00:06:34;96312.90;;;4.94;41.59
6851;BME280;3464;42.728;23.296;2024-01-10T00:09:01;96306.38;;;5.32;40.66
6851;BME280;3464;42.728;23.296;2024-01-10T00:11:27;96308.05;;;4.97;41.10
6851;BME280;3464;42.728;23.296;2024-01-10T00:13:54;96311.00;;;4.89;41.37
6851;BME280;3464;42.728;23.296;2024-01-10T00:16:21;96302.81;;;5.18;41.16
6851;BME280;3464;42.728;23.296;2024-01-10T00:18:49;96309.75;;;4.63;41.27
6851;BME280;3464;42.728;23.296;2024-01-10T00:21:15;96307.02;;;5.19;40.90
6851;BME280;3464;42.728;23.296;2024-01-10T00:23:42;96317.58;;;4.36;41.71
6851;BME280;3464;42.728;23.296;2024-01-10T00:26:09;96315.97;;;4.71;41.51
6851;BME280;3464;42.728;23.296;2024-01-10T00:28:35;96321.89;;;5.26;40.43
6851;BME280;3464;42.728;23.296;2024-01-10T00:31:02;96315.55;;;4.54;41.26
6851;BME280;3464;42.728;23.296;2024-01-10T00:33:29;96321.33;;;5.14;40.26
6851;BME280;3464;42.728;23.296;2024-01-10T00:35:55;96315.70;;;5.46;40.01
6851;BME280;3464;42.728;23.296;2024-01-10T00:38:22;96316.95;;;5.46;39.86
6851;BME280;3464;42.728;23.296;2024-01-10T00:40:48;96320.20;;;5.26;40.00
6851;BME280;3464;42.728;23.296;2024-01-10T00:43:15;96318.73;;;5.12;40.58
6851;BME280;3464;42.728;23.296;2024-01-10T00:45:41;96316.30;;;5.59;39.86
6851;BME280;3464;42.728;23.296;2024-01-10T00:48:08;96321.58;;;5.37;40.13
6851;BME280;3464;42.728;23.296;2024-01-10T00:50:34;96324.19;;;5.49;39.79
6851;BME280;3464;42.728;23.296;2024-01-10T00:53:01;96325.16;;;5.43;39.45
6851;BME280;3464;42.728;23.296;2024-01-10T00:55:27;96314.05;;;5.74;39.28
6851;BME280;3464;42.728;23.296;2024-01-10T00:57:54;96312.02;;;6.13;39.04
6851;BME280;3464;42.728;23.296;2024-01-10T01:00:21;96312.80;;;5.83;39.16
6851;BME280;3464;42.728;23.296;2024-01-10T01:02:47;96320.81;;;4.94;40.36
6851;BME280;3464;42.728;23.296;2024-01-10T01:05:15;96312.57;;;5.50;39.30
6851;BME280;3464;42.728;23.296;2024-01-10T01:07:42;96311.84;;;5.81;39.29
6851;BME280;3464;42.728;23.296;2024-01-10T01:10:09;96308.24;;;5.74;39.02
6851;BME280;3464;42.728;23.296;2024-01-10T01:12:35;96295.31;;;4.74;39.54
6851;BME280;3464;42.728;23.296;2024-01-10T01:15:02;96305.31;;;5.18;39.56
6851;BME280;3464;42.728;23.296;2024-01-10T01:17:28;96311.39;;;5.51;39.26
6851;BME280;3464;42.728;23.296;2024-01-10T01:19:55;96312.68;;;5.43;39.31
6851;BME280;3464;42.728;23.296;2024-01-10T01:22:21;96304.84;;;6.01;38.66
6851;BME280;3464;42.728;23.296;2024-01-10T01:24:48;96307.08;;;5.48;38.84
6851;BME280;3464;42.728;23.296;2024-01-10T01:27:15;96304.48;;;6.02;38.23
6851;BME280;3464;42.728;23.296;2024-01-10T01:29:41;96304.21;;;5.87;38.26
6851;BME280;3464;42.728;23.296;2024-01-10T01:32:09;96308.86;;;6.47;37.76
6851;BME280;3464;42.728;23.296;2024-01-10T01:34:37;96307.92;;;6.65;37.29
6851;BME280;3464;42.728;23.296;2024-01-10T01:37:04;96296.56;;;6.52;37.17
6851;BME280;3464;42.728;23.296;2024-01-10T01:39:34;96291.84;;;6.28;37.52
6851;BME280;3464;42.728;23.296;2024-01-10T01:42:00;96283.80;;;5.96;37.44
6851;BME280;3464;42.728;23.296;2024-01-10T01:44:28;96299.44;;;5.17;38.26
6851;BME280;3464;42.728;23.296;2024-01-10T01:46:56;96296.71;;;5.87;37.76
6851;BME280;3464;42.728;23.296;2024-01-10T01:49:22;96295.30;;;6.32;37.28
6851;BME280;3464;42.728;23.296;2024-01-10T01:51:50;96295.75;;;6.12;37.15
6851;BME280;3464;42.728;23.296;2024-01-10T01:54:17;96296.71;;;6.25;36.82
6851;BME280;3464;42.728;23.296;2024-01-10T01:56:45;96286.12;;;6.02;36.43
6851;BME280;3464;42.728;23.296;2024-01-10T01:59:12;96286.53;;;6.01;36.64
6851;BME280;3464;42.728;23.296;2024-01-10T02:01:39;96283.53;;;6.39;36.04
6851;BME280;3464;42.728;23.296;2024-01-10T02:04:05;96283.88;;;6.08;35.66
6851;BME280;3464;42.728;23.296;2024-01-10T02:06:35;96280.45;;;6.15;35.92
6851;BME280;3464;42.728;23.296;2024-01-10T02:09:01;96276.08;;;6.71;35.37
6851;BME280;3464;42.728;23.296;2024-01-10T02:11:28;96275.32;;;6.22;35.50
6851;BME280;3464;42.728;23.296;2024-01-10T02:13:54;96271.45;;;6.71;35.39
6851;BME280;3464;42.728;23.296;2024-01-10T02:16:21;96275.47;;;6.36;35.80
6851;BME280;3464;42.728;23.296;2024-01-10T02:18:48;96273.45;;;5.88;35.34
6851;BME280;3464;42.728;23.296;2024-01-10T02:21:15;96273.48;;;5.80;35.66
6851;BME280;3464;42.728;23.296;2024-01-10T02:23:41;96272.84;;;5.74;35.75
6851;BME280;3464;42.728;23.296;2024-01-10T02:26:08;96275.47;;;5.77;35.87
6851;BME280;3464;42.728;23.296;2024-01-10T02:28:35;96279.87;;;5.08;36.35
6851;BME280;3464;42.728;23.296;2024-01-10T02:31:01;96277.48;;;5.47;35.93
6851;BME280;3464;42.728;23.296;2024-01-10T02:33:28;96267.79;;;5.26;35.91
6851;BME280;3464;42.728;23.296;2024-01-10T02:35:55;96272.48;;;5.47;36.05
6851;BME280;3464;42.728;23.296;2024-01-10T02:38:21;96274.27;;;5.69;35.57
6851;BME280;3464;42.728;23.296;2024-01-10T02:40:48;96277.23;;;5.80;35.60
6851;BME280;3464;42.728;23.296;2024-01-10T02:43:15;96272.27;;;6.19;35.24
6851;BME280;3464;42.728;23.296;2024-01-10T02:45:42;96274.41;;;6.41;34.94
6851;BME280;3464;42.728;23.296;2024-01-10T02:48:09;96275.19;;;5.70;35.25
6851;BME280;3464;42.728;23.296;2024-01-10T02:50:36;96275.50;;;6.06;35.26
6851;BME280;3464;42.728;23.296;2024-01-10T02:53:03;96275.75;;;6.03;35.37
6851;BME280;3464;42.728;23.296;2024-01-10T02:55:29;96279.16;;;5.95;35.61
6851;BME280;3464;42.728;23.296;2024-01-10T02:57:56;96270.58;;;6.09;35.48
6851;BME280;3464;42.728;23.296;2024-01-10T03:00:22;96271.27;;;6.45;35.29
6851;BME280;3464;42.728;23.296;2024-01-10T03:02:49;96276.49;;;6.93;34.62
6851;BME280;3464;42.728;23.296;2024-01-10T03:05:15;96271.75;;;6.06;35.36
6851;BME280;3464;42.728;23.296;2024-01-10T03:07:42;96270.85;;;6.35;34.99
6851;BME280;3464;42.728;23.296;2024-01-10T03:10:09;96272.66;;;5.89;35.59
6851;BME280;3464;42.728;23.296;2024-01-10T03:12:36;96270.47;;;6.36;35.04
6851;BME280;3464;42.728;23.296;2024-01-10T03:15:03;96273.61;;;5.91;35.59
6851;BME280;3464;42.728;23.296;2024-01-10T03:17:29;96277.94;;;6.05;35.58
6851;BME280;3464;42.728;23.296;2024-01-10T03:19:55;96278.81;;;6.16;35.64
6851;BME280;3464;42.728;23.296;2024-01-10T03:22:22;96278.27;;;5.84;36.18
6851;BME280;3464;42.728;23.296;2024-01-10T03:24:48;96279.18;;;5.95;35.78
6851;BME280;3464;42.728;23.296;2024-01-10T03:27:15;96289.92;;;6.53;35.03
6851;BME280;3464;42.728;23.296;2024-01-10T03:29:41;96279.22;;;6.56;35.22
6851;BME280;3464;42.728;23.296;2024-01-10T03:32:08;96279.07;;;6.03;35.74
6851;BME280;3464;42.728;23.296;2024-01-10T03:34:35;96284.75;;;5.70;36.49
6851;BME280;3464;42.728;23.296;2024-01-10T03:37:01;96288.69;;;6.03;35.89
6851;BME280;3464;42.728;23.296;2024-01-10T03:39:28;96284.35;;;6.29;35.51
6851;BME280;3464;42.728;23.296;2024-01-10T03:41:54;96280.06;;;6.77;35.16
6851;BME280;3464;42.728;23.296;2024-01-10T03:44:21;96277.64;;;6.80;35.30
6851;BME280;3464;42.728;23.296;2024-01-10T03:46:47;96284.16;;;6.76;35.25
6851;BME280;3464;42.728;23.296;2024-01-10T03:49:15;96279.54;;;7.07;34.67
6851;BME280;3464;42.728;23.296;2024-01-10T03:51:43;96285.15;;;6.48;35.11
6851;BME280;3464;42.728;23.296;2024-01-10T03:54:15;96287.28;;;6.60;35.41
6851;BME280;3464;42.728;23.296;2024-01-10T03:56:43;96294.58;;;6.97;35.05
6851;BME280;3464;42.728;23.296;2024-01-10T03:59:11;96284.42;;;7.25;34.54
6851;BME280;3464;42.728;23.296;2024-01-10T04:01:41;96283.91;;;7.13;34.52
6851;BME280;3464;42.728;23.296;2024-01-10T04:04:09;96287.67;;;7.80;33.93
6851;BME280;3464;42.728;23.296;2024-01-10T04:06:36;96282.43;;;7.74;33.84
6851;BME280;3464;42.728;23.296;2024-01-10T04:09:04;96284.78;;;7.35;34.01
6851;BME280;3464;42.728;23.296;2024-01-10T04:11:31;96293.36;;;7.64;33.85
6851;BME280;3464;42.728;23.296;2024-01-10T04:13:57;96285.15;;;8.03;33.00
6851;BME280;3464;42.728;23.296;2024-01-10T04:19:09;96291.95;;;7.71;33.25
6851;BME280;3464;42.728;23.296;2024-01-10T04:21:35;96291.70;;;7.41;33.29
6851;BME280;3464;42.728;23.296;2024-01-10T04:24:02;96293.68;;;7.27;32.75
6851;BME280;3464;42.728;23.296;2024-01-10T04:26:28;96299.77;;;7.23;33.29
6851;BME280;3464;42.728;23.296;2024-01-10T04:28:55;96302.87;;;7.17;33.63
6851;BME280;3464;42.728;23.296;2024-01-10T04:31:21;96306.05;;;7.57;32.93
6851;BME280;3464;42.728;23.296;2024-01-10T04:33:48;96307.05;;;7.17;33.12
6851;BME280;3464;42.728;23.296;2024-01-10T04:36:15;96315.06;;;6.56;33.31
6851;BME280;3464;42.728;23.296;2024-01-10T04:38:41;96319.37;;;6.50;33.42
6851;BME280;3464;42.728;23.296;2024-01-10T04:41:08;96320.13;;;6.78;33.33
6851;BME280;3464;42.728;23.296;2024-01-10T04:43:34;96315.34;;;7.05;32.35
6851;BME280;3464;42.728;23.296;2024-01-10T04:46:02;96322.22;;;7.10;32.81
6851;BME280;3464;42.728;23.296;2024-01-10T04:48:28;96324.36;;;7.33;32.78
6851;BME280;3464;42.728;23.296;2024-01-10T04:50:55;96330.42;;;7.07;32.78
6851;BME280;3464;42.728;23.296;2024-01-10T04:53:21;96323.22;;;7.58;32.00
6851;BME280;3464;42.728;23.296;2024-01-10T04:55:48;96333.58;;;7.68;31.67
6851;BME280;3464;42.728;23.296;2024-01-10T04:58:14;96329.88;;;7.69;32.15
6851;BME280;3464;42.728;23.296;2024-01-10T05:00:41;96332.55;;;7.40;31.89
6851;BME280;3464;42.728;23.296;2024-01-10T05:03:07;96339.22;;;7.51;31.54
6851;BME280;3464;42.728;23.296;2024-01-10T05:05:34;96341.19;;;6.83;31.63
6851;BME280;3464;42.728;23.296;2024-01-10T05:08:00;96332.42;;;7.04;32.03
6851;BME280;3464;42.728;23.296;2024-01-10T05:10:28;96330.38;;;7.27;32.05
6851;BME280;3464;42.728;23.296;2024-01-10T05:12:55;96340.69;;;6.92;31.96
6851;BME280;3464;42.728;23.296;2024-01-10T05:15:21;96334.43;;;6.11;32.53
6851;BME280;3464;42.728;23.296;2024-01-10T05:17:48;96336.49;;;6.60;32.26
6851;BME280;3464;42.728;23.296;2024-01-10T05:20:15;96336.30;;;6.45;32.18
6851;BME280;3464;42.728;23.296;2024-01-10T05:22:42;96337.55;;;5.87;32.92
6851;BME280;3464;42.728;23.296;2024-01-10T05:25:08;96338.58;;;6.71;32.30
6851;BME280;3464;42.728;23.296;2024-01-10T05:27:35;96341.11;;;6.31;32.69
6851;BME280;3464;42.728;23.296;2024-01-10T05:30:01;96339.14;;;5.95;32.74
6851;BME280;3464;42.728;23.296;2024-01-10T05:32:28;96336.38;;;6.17;32.66
6851;BME280;3464;42.728;23.296;2024-01-10T05:34:54;96346.09;;;5.82;32.60
6851;BME280;3464;42.728;23.296;2024-01-10T05:37:21;96354.08;;;6.13;32.74
6851;BME280;3464;42.728;23.296;2024-01-10T05:39:48;96349.77;;;6.48;32.16
6851;BME280;3464;42.728;23.296;2024-01-10T05:42:14;96356.75;;;6.46;32.34
6851;BME280;3464;42.728;23.296;2024-01-10T05:44:41;96355.78;;;6.23;32.88
6851;BME280;3464;42.728;23.296;2024-01-10T05:47:07;96347.42;;;6.42;32.52
6851;BME280;3464;42.728;23.296;2024-01-10T05:49:34;96352.18;;;6.07;32.65
6851;BME280;3464;42.728;23.296;2024-01-10T05:52:00;96348.66;;;6.22;32.57
6851;BME280;3464;42.728;23.296;2024-01-10T05:54:27;96357.45;;;6.23;32.29
6851;BME280;3464;42.728;23.296;2024-01-10T05:56:54;96359.25;;;5.70;32.75
6851;BME280;3464;42.728;23.296;2024-01-10T05:59:21;96364.84;;;6.21;32.57
6851;BME280;3464;42.728;23.296;2024-01-10T06:01:47;96368.83;;;6.66;31.79
6851;BME280;3464;42.728;23.296;2024-01-10T06:04:14;96361.49;;;6.11;32.03
6851;BME280;3464;42.728;23.296;2024-01-10T06:06:40;96367.84;;;6.03;32.20
6851;BME280;3464;42.728;23.296;2024-01-10T06:09:07;96368.64;;;6.21;31.82
6851;BME280;3464;42.728;23.296;2024-01-10T06:11:39;96371.73;;;6.26;32.45
6851;BME280;3464;42.728;23.296;2024-01-10T06:14:02;96377.42;;;6.72;31.57
6851;BME280;3464;42.728;23.296;2024-01-10T06:16:28;96374.58;;;7.36;31.65
6851;BME280;3464;42.728;23.296;2024-01-10T06:18:55;96382.06;;;6.34;32.39
6851;BME280;3464;42.728;23.296;2024-01-10T06:21:21;96385.55;;;6.57;31.28
6851;BME280;3464;42.728;23.296;2024-01-10T06:23:48;96386.84;;;6.58;31.17
6851;BME280;3464;42.728;23.296;2024-01-10T06:26:14;96390.63;;;6.10;31.18
6851;BME280;3464;42.728;23.296;2024-01-10T06:28:41;96395.65;;;6.49;31.67
6851;BME280;3464;42.728;23.296;2024-01-10T06:31:07;96403.22;;;6.50;31.29
6851;BME280;3464;42.728;23.296;2024-01-10T06:33:34;96404.55;;;5.95;31.39
6851;BME280;3464;42.728;23.296;2024-01-10T06:36:02;96400.91;;;6.07;31.40
6851;BME280;3464;42.728;23.296;2024-01-10T06:38:30;96407.93;;;5.33;31.84
6851;BME280;3464;42.728;23.296;2024-01-10T06:40:56;96410.08;;;5.44;32.08
6851;BME280;3464;42.728;23.296;2024-01-10T06:43:25;96409.70;;;5.18;32.30
6851;BME280;3464;42.728;23.296;2024-01-10T06:45:52;96414.43;;;4.70;33.01
6851;BME280;3464;42.728;23.296;2024-01-10T06:48:19;96415.63;;;5.11;32.38
6851;BME280;3464;42.728;23.296;2024-01-10T06:50:46;96408.59;;;5.75;32.23
6851;BME280;3464;42.728;23.296;2024-01-10T06:53:14;96417.48;;;5.24;32.69
6851;BME280;3464;42.728;23.296;2024-01-10T06:55:40;96415.00;;;5.69;32.50
6851;BME280;3464;42.728;23.296;2024-01-10T06:58:07;96422.39;;;5.58;32.79
6851;BME280;3464;42.728;23.296;2024-01-10T07:00:33;96417.05;;;5.77;32.10
6851;BME280;3464;42.728;23.296;2024-01-10T07:03:01;96417.63;;;5.81;32.53
6851;BME280;3464;42.728;23.296;2024-01-10T07:05:27;96417.91;;;6.73;31.37
6851;BME280;3464;42.728;23.296;2024-01-10T07:07:54;96413.08;;;7.28;31.20
6851;BME280;3464;42.728;23.296;2024-01-10T07:10:20;96414.30;;;6.97;31.39
6851;BME280;3464;42.728;23.296;2024-01-10T07:12:48;96420.85;;;7.35;31.45
6851;BME280;3464;42.728;23.296;2024-01-10T07:15:14;96420.20;;;7.50;31.41
6851;BME280;3464;42.728;23.296;2024-01-10T07:17:41;96426.36;;;7.26;32.09
6851;BME280;3464;42.728;23.296;2024-01-10T07:20:08;96425.44;;;7.04;32.46
6851;BME280;3464;42.728;23.296;2024-01-10T07:22:35;96424.14;;;7.99;32.12
6851;BME280;3464;42.728;23.296;2024-01-10T07:25:02;96419.41;;;8.40;31.65
6851;BME280;3464;42.728;23.296;2024-01-10T07:27:28;96420.84;;;8.94;31.24
6851;BME280;3464;42.728;23.296;2024-01-10T07:29:55;96416.22;;;9.45;30.57
6851;BME280;3464;42.728;23.296;2024-01-10T07:32:22;96422.94;;;9.06;30.96
6851;BME280;3464;42.728;23.296;2024-01-10T07:34:49;96427.92;;;8.44;31.50
6851;BME280;3464;42.728;23.296;2024-01-10T07:37:15;96434.58;;;8.10;32.26
6851;BME280;3464;42.728;23.296;2024-01-10T07:39:42;96432.83;;;8.53;32.20
6851;BME280;3464;42.728;23.296;2024-01-10T07:42:09;96438.56;;;9.11;31.77
6851;BME280;3464;42.728;23.296;2024-01-10T07:44:35;96431.19;;;9.83;31.08
6851;BME280;3464;42.728;23.296;2024-01-10T07:47:02;96431.41;;;10.31;30.61
6851;BME280;3464;42.728;23.296;2024-01-10T07:49:29;96433.66;;;9.27;31.25
6851;BME280;3464;42.728;23.296;2024-01-10T07:51:56;96436.72;;;8.93;32.00
6851;BME280;3464;42.728;23.296;2024-01-10T07:54:22;96439.59;;;8.67;32.74
6851;BME280;3464;42.728;23.296;2024-01-10T07:56:49;96438.83;;;9.44;31.31
6851;BME280;3464;42.728;23.296;2024-01-10T07:59:15;96443.02;;;9.19;31.60
6851;BME280;3464;42.728;23.296;2024-01-10T08:01:43;96432.50;;;9.43;30.76
6851;BME280;3464;42.728;23.296;2024-01-10T08:04:09;96435.19;;;8.97;31.07
6851;BME280;3464;42.728;23.296;2024-01-10T08:06:35;96433.42;;;8.34;32.07
6851;BME280;3464;42.728;23.296;2024-01-10T08:09:02;96431.95;;;9.26;31.12
6851;BME280;3464;42.728;23.296;2024-01-10T08:11:30;96436.46;;;9.76;30.54
6851;BME280;3464;42.728;23.296;2024-01-10T08:13:58;96430.58;;;9.62;30.70
6851;BME280;3464;42.728;23.296;2024-01-10T08:16:25;96432.27;;;10.05;30.26
6851;BME280;3464;42.728;23.296;2024-01-10T08:18:53;96442.39;;;9.25;30.75
6851;BME280;3464;42.728;23.296;2024-01-10T08:21:20;96436.16;;;10.07;30.28
6851;BME280;3464;42.728;23.296;2024-01-10T08:23:47;96437.38;;;9.79;30.33
6851;BME280;3464;42.728;23.296;2024-01-10T08:26:14;96438.18;;;9.91;30.15
6851;BME280;3464;42.728;23.296;2024-01-10T08:28:40;96433.14;;;10.21;29.97
6851;BME280;3464;42.728;23.296;2024-01-10T08:31:07;96439.69;;;9.86;29.92
6851;BME280;3464;42.728;23.296;2024-01-10T08:33:33;96438.09;;;10.31;28.86
6851;BME280;3464;42.728;23.296;2024-01-10T08:36:00;96442.02;;;10.07;28.76
6851;BME280;3464;42.728;23.296;2024-01-10T08:38:27;96441.93;;;9.50;29.33
6851;BME280;3464;42.728;23.296;2024-01-10T08:40:54;96447.08;;;9.28;29.62
6851;BME280;3464;42.728;23.296;2024-01-10T08:43:21;96439.25;;;10.12;28.86
6851;BME280;3464;42.728;23.296;2024-01-10T08:45:48;96434.47;;;10.66;27.77
6851;BME280;3464;42.728;23.296;2024-01-10T08:48:14;96448.82;;;10.85;27.44
6851;BME280;3464;42.728;23.296;2024-01-10T08:50:42;96442.69;;;10.91;27.77
6851;BME280;3464;42.728;23.296;2024-01-10T08:53:09;96448.85;;;10.39;27.86
6851;BME280;3464;42.728;23.296;2024-01-10T08:55:34;96445.36;;;9.79;28.02
6851;BME280;3464;42.728;23.296;2024-01-10T08:58:01;96437.43;;;10.22;27.57
6851;BME280;3464;42.728;23.296;2024-01-10T09:00:28;96441.83;;;9.34;28.13
6851;BME280;3464;42.728;23.296;2024-01-10T09:02:55;96444.97;;;9.02;28.12
6851;BME280;3464;42.728;23.296;2024-01-10T09:05:21;96441.25;;;9.83;27.36
6851;BME280;3464;42.728;23.296;2024-01-10T09:07:49;96435.52;;;10.01;26.99
6851;BME280;3464;42.728;23.296;2024-01-10T09:10:15;96436.61;;;10.52;26.56
6851;BME280;3464;42.728;23.296;2024-01-10T09:12:41;96433.02;;;10.29;26.37
6851;BME280;3464;42.728;23.296;2024-01-10T09:15:08;96430.16;;;10.78;25.86
6851;BME280;3464;42.728;23.296;2024-01-10T09:17:35;96429.74;;;11.10;25.60
6851;BME280;3464;42.728;23.296;2024-01-10T09:20:01;96431.75;;;11.23;25.62
6851;BME280;3464;42.728;23.296;2024-01-10T09:22:28;96421.05;;;11.85;25.16
6851;BME280;3464;42.728;23.296;2024-01-10T09:24:54;96424.74;;;11.63;25.21
6851;BME280;3464;42.728;23.296;2024-01-10T09:27:21;96431.91;;;10.95;25.65
6851;BME280;3464;42.728;23.296;2024-01-10T09:29:48;96432.53;;;10.88;26.00
6851;BME280;3464;42.728;23.296;2024-01-10T09:32:15;96434.92;;;10.37;26.28
6851;BME280;3464;42.728;23.296;2024-01-10T09:34:41;96428.05;;;10.92;26.14
6851;BME280;3464;42.728;23.296;2024-01-10T09:37:08;96420.71;;;11.52;25.38
6851;BME280;3464;42.728;23.296;2024-01-10T09:39:35;96418.09;;;11.85;25.28
6851;BME280;3464;42.728;23.296;2024-01-10T09:42:02;96412.29;;;12.08;25.05
6851;BME280;3464;42.728;23.296;2024-01-10T09:44:29;96414.02;;;11.91;25.01
6851;BME280;3464;42.728;23.296;2024-01-10T09:46:55;96419.12;;;11.39;25.58
6851;BME280;3464;42.728;23.296;2024-01-10T09:49:22;96419.02;;;10.69;26.04
6851;BME280;3464;42.728;23.296;2024-01-10T09:51:49;96419.09;;;10.71;26.24
6851;BME280;3464;42.728;23.296;2024-01-10T09:54:15;96413.56;;;11.01;25.97
6851;BME280;3464;42.728;23.296;2024-01-10T09:56:42;96411.48;;;11.54;25.87
6851;BME280;3464;42.728;23.296;2024-01-10T09:59:08;96407.17;;;11.50;25.77
6851;BME280;3464;42.728;23.296;2024-01-10T10:01:35;96405.86;;;11.64;25.70
6851;BME280;3464;42.728;23.296;2024-01-10T10:04:03;96399.88;;;11.26;26.10
6851;BME280;3464;42.728;23.296;2024-01-10T10:06:30;96404.09;;;10.60;26.34
6851;BME280;3464;42.728;23.296;2024-01-10T10:08:56;96403.63;;;10.59;26.49
6851;BME280;3464;42.728;23.296;2024-01-10T10:11:23;96395.70;;;10.29;26.61
6851;BME280;3464;42.728;23.296;2024-01-10T10:13:50;96388.93;;;10.12;27.00
6851;BME280;3464;42.728;23.296;2024-01-10T10:16:25;96383.59;;;10.31;26.83
6851;BME280;3464;42.728;23.296;2024-01-10T10:18:52;96386.84;;;10.91;26.60
6851;BME280;3464;42.728;23.296;2024-01-10T10:21:19;96369.72;;;11.65;25.64
6851;BME280;3464;42.728;23.296;2024-01-10T10:23:58;96376.28;;;12.15;25.32
6851;BME280;3464;42.728;23.296;2024-01-10T10:26:24;96369.30;;;12.03;25.36
6851;BME280;3464;42.728;23.296;2024-01-10T10:28:50;96367.80;;;11.72;25.44
6851;BME280;3464;42.728;23.296;2024-01-10T10:31:18;96374.64;;;11.42;25.53
6851;BME280;3464;42.728;23.296;2024-01-10T10:33:45;96371.58;;;11.18;25.63
6851;BME280;3464;42.728;23.296;2024-01-10T10:36:14;96366.14;;;11.73;25.09
6851;BME280;3464;42.728;23.296;2024-01-10T10:38:42;96358.89;;;11.52;25.08
6851;BME280;3464;42.728;23.296;2024-01-10T10:41:09;96355.39;;;11.62;25.71
6851;BME280;3464;42.728;23.296;2024-01-10T10:43:37;96352.90;;;11.64;25.43
6851;BME280;3464;42.728;23.296;2024-01-10T10:46:05;96351.87;;;11.57;25.65
6851;BME280;3464;42.728;23.296;2024-01-10T10:48:32;96348.27;;;11.46;25.74
6851;BME280;3464;42.728;23.296;2024-01-10T10:53:42;96332.69;;;11.82;25.65
6851;BME280;3464;42.728;23.296;2024-01-10T10:56:08;96324.89;;;11.71;25.81
6851;BME280;3464;42.728;23.296;2024-01-10T10:58:36;96327.10;;;11.39;26.34
6851;BME280;3464;42.728;23.296;2024-01-10T11:01:04;96325.41;;;11.03;26.83
6851;BME280;3464;42.728;23.296;2024-01-10T11:03:33;96321.09;;;11.16;26.43
6851;BME280;3464;42.728;23.296;2024-01-10T11:05:58;96315.52;;;10.93;27.05
6851;BME280;3464;42.728;23.296;2024-01-10T11:08:24;96318.04;;;11.11;26.57
6851;BME280;3464;42.728;23.296;2024-01-10T11:10:51;96311.88;;;11.17;26.77
6851;BME280;3464;42.728;23.296;2024-01-10T11:14:12;96312.50;;;11.07;26.92
6851;BME280;3464;42.728;23.296;2024-01-10T11:16:36;96309.11;;;11.23;26.86
6851;BME280;3464;42.728;23.296;2024-01-10T11:19:27;96302.73;;;11.58;26.56
6851;BME280;3464;42.728;23.296;2024-01-10T11:22:00;96301.05;;;11.02;27.13
6851;BME280;3464;42.728;23.296;2024-01-10T11:24:23;96295.54;;;11.18;27.27
6851;BME280;3464;42.728;23.296;2024-01-10T11:26:49;96292.16;;;11.18;27.29
6851;BME280;3464;42.728;23.296;2024-01-10T11:29:16;96294.02;;;10.39;28.17
6851;BME280;3464;42.728;23.296;2024-01-10T11:31:43;96294.30;;;11.37;27.38
6851;BME280;3464;42.728;23.296;2024-01-10T11:34:09;96291.05;;;11.43;26.82
6851;BME280;3464;42.728;23.296;2024-01-10T11:39:50;96283.30;;;10.80;27.69
6851;BME280;3464;42.728;23.296;2024-01-10T11:48:40;96264.57;;;11.82;27.36
6851;BME280;3464;42.728;23.296;2024-01-10T11:51:10;96264.42;;;11.75;27.53
6851;BME280;3464;42.728;23.296;2024-01-10T11:53:49;96262.61;;;12.11;27.48
6851;BME280;3464;42.728;23.296;2024-01-10T11:56:39;96246.38;;;12.44;26.93
6851;BME280;3464;42.728;23.296;2024-01-10T11:59:57;96256.91;;;11.38;28.23
6851;BME280;3464;42.728;23.296;2024-01-10T12:02:54;96255.66;;;11.38;28.37
6851;BME280;3464;42.728;23.296;2024-01-10T12:12:09;96239.48;;;11.49;28.97
6851;BME280;3464;42.728;23.296;2024-01-10T12:14:46;96242.95;;;10.96;29.52
6851;BME280;3464;42.728;23.296;2024-01-10T12:17:16;96235.75;;;11.12;29.49
6851;BME280;3464;42.728;23.296;2024-01-10T12:19:47;96241.52;;;10.88;29.94
6851;BME280;3464;42.728;23.296;2024-01-10T12:22:20;96234.81;;;11.46;29.52
6851;BME280;3464;42.728;23.296;2024-01-10T12:25:10;96233.85;;;11.02;30.35
6851;BME280;3464;42.728;23.296;2024-01-10T12:27:38;96224.23;;;11.04;30.07
6851;BME280;3464;42.728;23.296;2024-01-10T12:30:06;96242.11;;;10.27;31.00
6851;BME280;3464;42.728;23.296;2024-01-10T12:32:36;96234.31;;;11.04;29.94
6851;BME280;3464;42.728;23.296;2024-01-10T12:35:03;96236.05;;;10.88;30.40
6851;BME280;3464;42.728;23.296;2024-01-10T12:37:32;96238.57;;;10.88;30.53
6851;BME280;3464;42.728;23.296;2024-01-10T12:40:00;96233.78;;;10.98;30.40
6851;BME280;3464;42.728;23.296;2024-01-10T12:42:35;96244.36;;;10.66;30.83
6851;BME280;3464;42.728;23.296;2024-01-10T12:45:27;96231.61;;;11.33;29.84
6851;BME280;3464;42.728;23.296;2024-01-10T12:47:54;96235.91;;;10.99;30.25
6851;BME280;3464;42.728;23.296;2024-01-10T12:50:24;96235.55;;;11.21;30.11
6851;BME280;3464;42.728;23.296;2024-01-10T12:56:25;96244.42;;;10.35;31.19
6851;BME280;3464;42.728;23.296;2024-01-10T12:58:56;96239.78;;;10.50;31.19
6851;BME280;3464;42.728;23.296;2024-01-10T13:01:29;96240.14;;;10.48;31.50
6851;BME280;3464;42.728;23.296;2024-01-10T13:04:20;96240.27;;;10.89;30.70
6851;BME280;3464;42.728;23.296;2024-01-10T13:07:16;96232.77;;;11.29;30.34
6851;BME280;3464;42.728;23.296;2024-01-10T13:09:42;96234.44;;;10.72;30.67
6851;BME280;3464;42.728;23.296;2024-01-10T13:12:09;96238.86;;;10.65;30.79
6851;BME280;3464;42.728;23.296;2024-01-10T13:14:35;96234.33;;;10.85;30.77
6851;BME280;3464;42.728;23.296;2024-01-10T13:17:02;96240.91;;;10.61;31.12
6851;BME280;3464;42.728;23.296;2024-01-10T13:19:30;96242.13;;;10.61;31.30
6851;BME280;3464;42.728;23.296;2024-01-10T13:21:57;96235.84;;;9.96;31.79
6851;BME280;3464;42.728;23.296;2024-01-10T13:24:27;96233.22;;;10.40;31.32
6851;BME280;3464;42.728;23.296;2024-01-10T13:53:36;96221.13;;;11.15;30.21
6851;BME280;3464;42.728;23.296;2024-01-10T13:56:31;96230.22;;;10.90;30.48
6851;BME280;3464;42.728;23.296;2024-01-10T14:02:41;96219.30;;;11.08;30.47
6851;BME280;3464;42.728;23.296;2024-01-10T14:05:12;96232.09;;;10.99;30.39
6851;BME280;3464;42.728;23.296;2024-01-10T14:07:42;96224.73;;;11.07;30.33
6851;BME280;3464;42.728;23.296;2024-01-10T14:10:25;96234.50;;;10.57;30.99
6851;BME280;3464;42.728;23.296;2024-01-10T14:16:18;96239.78;;;10.50;31.28
6851;BME280;3464;42.728;23.296;2024-01-10T14:19:02;96241.69;;;10.60;31.16
6851;BME280;3464;42.728;23.296;2024-01-10T14:21:59;96240.48;;;10.45;31.48